Time,TemperatureF,DewpointF,PressureIn,WindDirection,WindDirectionDegrees,WindSpeedMPH,WindSpeedGustMPH,Humidity,HourlyPrecipIn,Conditions,Clouds,dailyrainin,SoftwareType,DateUTC
2013-02-14 00:00:00,36.3,32.5,30.06,WNW,283,1.0,2.0,86,0.00,,,0.00,Wunderground v.1.13,2013-02-14 05:00:00,
2013-02-14 00:01:00,36.3,32.5,30.06,WNW,283,1.0,2.0,86,0.00,,,0.00,Wunderground v.1.13,2013-02-14 05:01:00,
2013-02-14 00:02:00,36.3,32.5,30.06,WNW,283,1.0,2.0,86,0.00,,,0.00,Wunderground v.1.13,2013-02-14 05:02:00,
2013-02-14 00:03:00,36.3,32.5,30.06,WNW,283,1.0,2.0,86,0.00,,,0.00,Wunderground v.1.13,2013-02-14 05:03:00,
2013-02-14 00:09:00,36.3,32.5,30.06,WNW,283,1.0,1.0,86,0.00,,,0.00,Wunderground v.1.13,2013-02-14 05:09:00,
2013-02-14 00:15:00,36.2,32.4,30.06,WNW,283,0.0,0.0,86,0.00,,,0.00,Wunderground v.1.13,2013-02-14 05:15:00,
2013-02-14 00:20:00,36.2,32.4,30.06,WNW,283,1.0,2.0,86,0.00,,,0.00,Wunderground v.1.13,2013-02-14 05:20:00,
2013-02-14 00:26:00,36.3,32.5,30.06,WNW,283,1.0,1.0,86,0.00,,,0.00,Wunderground v.1.13,2013-02-14 05:26:00,
2013-02-14 00:31:00,36.3,32.5,30.07,WNW,283,0.0,0.0,86,0.00,,,0.00,Wunderground v.1.13,2013-02-14 05:31:00,
2013-02-14 00:37:00,36.3,32.5,30.07,WNW,283,0.0,0.0,86,0.00,,,0.00,Wunderground v.1.13,2013-02-14 05:37:00,
2013-02-14 00:42:00,36.2,32.4,30.07,WNW,283,0.0,2.0,86,0.00,,,0.00,Wunderground v.1.13,2013-02-14 05:42:00,
2013-02-14 00:48:00,36.2,32.4,30.07,WNW,283,0.0,1.0,86,0.00,,,0.00,Wunderground v.1.13,2013-02-14 05:48:00,
2013-02-14 00:53:00,36.0,31.9,30.07,WNW,283,0.0,0.0,85,0.00,,,0.00,Wunderground v.1.13,2013-02-14 05:53:00,
2013-02-14 00:59:00,35.9,31.8,30.07,WNW,283,0.0,0.0,85,0.00,,,0.00,Wunderground v.1.13,2013-02-14 05:59:00,
2013-02-14 01:04:00,35.7,31.9,30.07,WNW,283,0.0,0.0,86,0.00,,,0.00,Wunderground v.1.13,2013-02-14 06:04:00,
2013-02-14 01:10:00,35.6,31.8,30.07,WNW,283,0.0,0.0,86,0.00,,,0.00,Wunderground v.1.13,2013-02-14 06:10:00,
2013-02-14 01:15:00,35.4,31.6,30.07,WNW,283,0.0,0.0,86,0.00,,,0.00,Wunderground v.1.13,2013-02-14 06:15:00,
2013-02-14 01:21:00,35.3,31.5,30.08,WNW,283,0.0,0.0,86,0.00,,,0.00,Wunderground v.1.13,2013-02-14 06:21:00,
2013-02-14 01:26:00,35.3,31.8,30.08,WNW,283,0.0,0.0,87,0.00,,,0.00,Wunderground v.1.13,2013-02-14 06:26:00,
2013-02-14 01:32:00,35.2,31.7,30.08,WNW,283,0.0,0.0,87,0.00,,,0.00,Wunderground v.1.13,2013-02-14 06:32:00,
2013-02-14 01:38:00,35.1,31.6,30.08,WNW,283,0.0,0.0,87,0.00,,,0.00,Wunderground v.1.13,2013-02-14 06:38:00,
2013-02-14 01:43:00,35.0,31.5,30.08,WNW,283,0.0,0.0,87,0.00,,,0.00,Wunderground v.1.13,2013-02-14 06:43:00,
2013-02-14 01:49:00,34.9,31.4,30.08,WNW,283,0.0,0.0,87,0.00,,,0.00,Wunderground v.1.13,2013-02-14 06:49:00,
2013-02-14 01:55:00,34.8,31.6,30.08,WNW,283,0.0,0.0,88,0.00,,,0.00,Wunderground v.1.13,2013-02-14 06:55:00,
2013-02-14 02:00:00,34.8,31.6,30.08,WNW,283,0.0,0.0,88,0.00,,,0.00,Wunderground v.1.13,2013-02-14 07:00:00,
2013-02-14 02:06:00,34.6,31.4,30.09,WNW,283,0.0,0.0,88,0.00,,,0.00,Wunderground v.1.13,2013-02-14 07:06:00,
2013-02-14 02:12:00,34.6,31.4,30.09,WNW,283,0.0,0.0,88,0.00,,,0.00,Wunderground v.1.13,2013-02-14 07:12:00,
2013-02-14 02:17:00,34.5,31.6,30.09,WNW,283,0.0,0.0,89,0.00,,,0.00,Wunderground v.1.13,2013-02-14 07:17:00,
2013-02-14 02:23:00,34.5,31.6,30.09,WNW,283,0.0,0.0,89,0.00,,,0.00,Wunderground v.1.13,2013-02-14 07:23:00,
2013-02-14 02:29:00,34.4,31.5,30.09,WNW,283,0.0,0.0,89,0.00,,,0.00,Wunderground v.1.13,2013-02-14 07:29:00,
2013-02-14 02:35:00,34.4,31.5,30.09,WNW,283,0.0,0.0,89,0.00,,,0.00,Wunderground v.1.13,2013-02-14 07:35:00,
2013-02-14 02:40:00,34.4,31.5,30.09,WNW,283,0.0,0.0,89,0.00,,,0.00,Wunderground v.1.13,2013-02-14 07:40:00,
2013-02-14 02:46:00,34.4,31.5,30.09,WNW,283,0.0,0.0,89,0.00,,,0.00,Wunderground v.1.13,2013-02-14 07:46:00,
2013-02-14 02:51:00,34.4,31.8,30.09,WNW,283,0.0,0.0,90,0.00,,,0.00,Wunderground v.1.13,2013-02-14 07:51:00,
2013-02-14 02:57:00,34.4,31.5,30.09,WNW,283,0.0,0.0,89,0.00,,,0.00,Wunderground v.1.13,2013-02-14 07:57:00,
2013-02-14 03:02:00,34.6,32.0,30.09,WNW,283,0.0,0.0,90,0.00,,,0.00,Wunderground v.1.13,2013-02-14 08:02:00,
2013-02-14 03:08:00,34.6,32.0,30.09,WNW,283,0.0,1.0,90,0.00,,,0.00,Wunderground v.1.13,2013-02-14 08:08:00,
2013-02-14 03:14:00,34.6,32.0,30.09,WNW,283,0.0,0.0,90,0.00,,,0.00,Wunderground v.1.13,2013-02-14 08:14:00,
2013-02-14 03:20:00,34.5,31.9,30.09,WNW,283,0.0,0.0,90,0.00,,,0.00,Wunderground v.1.13,2013-02-14 08:20:00,
2013-02-14 03:25:00,34.5,31.9,30.09,WNW,283,0.0,0.0,90,0.00,,,0.00,Wunderground v.1.13,2013-02-14 08:25:00,
2013-02-14 03:31:00,34.4,31.8,30.09,WNW,283,0.0,0.0,90,0.00,,,0.00,Wunderground v.1.13,2013-02-14 08:31:00,
2013-02-14 03:37:00,34.4,31.8,30.09,WNW,283,0.0,0.0,90,0.00,,,0.00,Wunderground v.1.13,2013-02-14 08:37:00,
2013-02-14 03:43:00,34.4,31.8,30.09,WNW,283,0.0,0.0,90,0.00,,,0.00,Wunderground v.1.13,2013-02-14 08:43:00,
2013-02-14 03:48:00,34.4,31.8,30.09,WNW,283,0.0,0.0,90,0.00,,,0.00,Wunderground v.1.13,2013-02-14 08:48:00,
2013-02-14 03:54:00,34.4,32.0,30.09,WNW,283,0.0,0.0,91,0.00,,,0.00,Wunderground v.1.13,2013-02-14 08:54:00,
2013-02-14 04:00:00,34.3,31.9,30.09,WNW,283,0.0,0.0,91,0.00,,,0.00,Wunderground v.1.13,2013-02-14 09:00:00,
2013-02-14 04:06:00,34.3,31.7,30.09,WNW,283,0.0,0.0,90,0.00,,,0.00,Wunderground v.1.13,2013-02-14 09:06:00,
2013-02-14 04:11:00,34.2,31.8,30.09,WNW,283,0.0,0.0,91,0.00,,,0.00,Wunderground v.1.13,2013-02-14 09:11:00,
2013-02-14 04:17:00,34.2,31.8,30.09,WNW,283,0.0,0.0,91,0.00,,,0.00,Wunderground v.1.13,2013-02-14 09:17:00,
2013-02-14 04:23:00,34.1,31.7,30.09,WNW,283,0.0,0.0,91,0.00,,,0.00,Wunderground v.1.13,2013-02-14 09:23:00,
2013-02-14 04:28:00,34.1,31.7,30.09,WNW,283,0.0,0.0,91,0.00,,,0.00,Wunderground v.1.13,2013-02-14 09:28:00,
2013-02-14 04:34:00,34.1,31.7,30.09,WNW,283,0.0,0.0,91,0.00,,,0.00,Wunderground v.1.13,2013-02-14 09:34:00,
2013-02-14 04:40:00,34.0,31.6,30.09,WNW,283,0.0,0.0,91,0.00,,,0.00,Wunderground v.1.13,2013-02-14 09:40:00,
2013-02-14 04:46:00,34.0,31.6,30.09,WNW,283,0.0,0.0,91,0.00,,,0.00,Wunderground v.1.13,2013-02-14 09:46:00,
2013-02-14 04:52:00,33.9,31.6,30.09,WNW,283,0.0,0.0,91,0.00,,,0.00,Wunderground v.1.13,2013-02-14 09:52:00,
2013-02-14 04:57:00,33.9,31.6,30.09,WNW,283,0.0,0.0,91,0.00,,,0.00,Wunderground v.1.13,2013-02-14 09:57:00,
2013-02-14 05:03:00,33.8,31.5,30.10,WNW,283,0.0,0.0,91,0.00,,,0.00,Wunderground v.1.13,2013-02-14 10:03:00,
2013-02-14 05:09:00,33.7,31.4,30.10,WNW,283,0.0,0.0,91,0.00,,,0.00,Wunderground v.1.13,2013-02-14 10:09:00,
2013-02-14 05:14:00,33.6,31.3,30.10,WNW,283,0.0,0.0,91,0.00,,,0.00,Wunderground v.1.13,2013-02-14 10:14:00,
2013-02-14 05:20:00,33.5,31.2,30.09,WNW,283,0.0,0.0,91,0.00,,,0.00,Wunderground v.1.13,2013-02-14 10:20:00,
2013-02-14 05:25:00,33.4,31.1,30.10,WNW,283,0.0,0.0,91,0.00,,,0.00,Wunderground v.1.13,2013-02-14 10:25:00,
2013-02-14 05:31:00,33.4,31.1,30.10,WNW,283,0.0,0.0,91,0.00,,,0.00,Wunderground v.1.13,2013-02-14 10:31:00,
2013-02-14 05:37:00,33.3,31.0,30.10,WNW,283,0.0,0.0,91,0.00,,,0.00,Wunderground v.1.13,2013-02-14 10:37:00,
2013-02-14 05:43:00,33.3,31.0,30.10,WNW,283,0.0,0.0,91,0.00,,,0.00,Wunderground v.1.13,2013-02-14 10:43:00,
2013-02-14 05:48:00,33.2,30.9,30.10,WNW,283,0.0,0.0,91,0.00,,,0.00,Wunderground v.1.13,2013-02-14 10:48:00,
2013-02-14 05:54:00,33.2,31.1,30.10,WNW,283,0.0,0.0,92,0.00,,,0.00,Wunderground v.1.13,2013-02-14 10:54:00,
2013-02-14 06:00:00,33.2,31.1,30.10,WNW,283,0.0,0.0,92,0.00,,,0.00,Wunderground v.1.13,2013-02-14 11:00:00,
2013-02-14 06:06:00,33.2,31.1,30.10,WNW,283,0.0,0.0,92,0.00,,,0.00,Wunderground v.1.13,2013-02-14 11:06:00,
2013-02-14 06:11:00,33.2,31.1,30.10,WNW,283,0.0,0.0,92,0.00,,,0.00,Wunderground v.1.13,2013-02-14 11:11:00,
2013-02-14 06:17:00,33.1,31.0,30.10,WNW,283,0.0,0.0,92,0.00,,,0.00,Wunderground v.1.13,2013-02-14 11:17:00,
2013-02-14 06:22:00,33.1,31.0,30.10,WNW,283,0.0,0.0,92,0.00,,,0.00,Wunderground v.1.13,2013-02-14 11:22:00,
2013-02-14 06:28:00,33.0,30.9,30.10,WNW,283,0.0,0.0,92,0.00,,,0.00,Wunderground v.1.13,2013-02-14 11:28:00,
2013-02-14 06:34:00,32.9,30.8,30.10,WNW,283,0.0,0.0,92,0.00,,,0.00,Wunderground v.1.13,2013-02-14 11:34:00,
2013-02-14 06:39:00,32.7,30.6,30.10,WNW,283,0.0,0.0,92,0.00,,,0.00,Wunderground v.1.13,2013-02-14 11:39:00,
2013-02-14 06:45:00,32.4,30.3,30.10,WNW,283,0.0,0.0,92,0.00,,,0.00,Wunderground v.1.13,2013-02-14 11:45:00,
2013-02-14 06:50:00,32.2,29.9,30.10,WNW,283,0.0,0.0,91,0.00,,,0.00,Wunderground v.1.13,2013-02-14 11:50:00,
2013-02-14 06:56:00,31.8,29.5,30.10,WNW,283,0.0,0.0,91,0.00,,,0.00,Wunderground v.1.13,2013-02-14 11:56:00,
2013-02-14 07:01:00,31.5,29.2,30.10,WNW,283,0.0,0.0,91,0.00,,,0.00,Wunderground v.1.13,2013-02-14 12:01:00,
2013-02-14 07:07:00,31.3,29.0,30.11,WNW,283,0.0,0.0,91,0.00,,,0.00,Wunderground v.1.13,2013-02-14 12:07:00,
2013-02-14 07:13:00,31.0,28.7,30.11,WNW,283,0.0,0.0,91,0.00,,,0.00,Wunderground v.1.13,2013-02-14 12:13:00,
2013-02-14 07:18:00,30.7,28.4,30.11,WNW,283,0.0,0.0,91,0.00,,,0.00,Wunderground v.1.13,2013-02-14 12:18:00,
2013-02-14 07:24:00,30.4,28.1,30.11,WNW,283,0.0,0.0,91,0.00,,,0.00,Wunderground v.1.13,2013-02-14 12:24:00,
2013-02-14 07:29:00,30.2,27.9,30.11,WNW,283,0.0,0.0,91,0.00,,,0.00,Wunderground v.1.13,2013-02-14 12:29:00,
2013-02-14 07:35:00,29.9,27.6,30.11,WNW,283,0.0,0.0,91,0.00,,,0.00,Wunderground v.1.13,2013-02-14 12:35:00,
2013-02-14 07:41:00,29.8,27.5,30.11,WNW,283,0.0,0.0,91,0.00,,,0.00,Wunderground v.1.13,2013-02-14 12:41:00,
2013-02-14 07:46:00,29.7,27.4,30.11,WNW,283,0.0,0.0,91,0.00,,,0.00,Wunderground v.1.13,2013-02-14 12:46:00,
2013-02-14 07:52:00,29.8,27.8,30.12,WNW,283,0.0,0.0,92,0.00,,,0.00,Wunderground v.1.13,2013-02-14 12:52:00,
2013-02-14 07:57:00,30.2,28.2,30.12,WNW,283,0.0,0.0,92,0.00,,,0.00,Wunderground v.1.13,2013-02-14 12:57:00,
2013-02-14 08:02:00,30.7,28.9,30.12,WNW,283,0.0,0.0,93,0.00,,,0.00,Wunderground v.1.13,2013-02-14 13:02:00,
2013-02-14 08:08:00,31.5,29.7,30.13,WNW,283,0.0,0.0,93,0.00,,,0.00,Wunderground v.1.13,2013-02-14 13:08:00,
2013-02-14 08:14:00,32.0,30.5,30.13,WNW,283,0.0,0.0,94,0.00,,,0.00,Wunderground v.1.13,2013-02-14 13:14:00,
2013-02-14 08:19:00,32.5,31.0,30.13,WNW,283,0.0,0.0,94,0.00,,,0.00,Wunderground v.1.13,2013-02-14 13:19:00,
2013-02-14 08:25:00,32.9,31.4,30.14,WNW,283,0.0,0.0,94,0.00,,,0.00,Wunderground v.1.13,2013-02-14 13:25:00,
2013-02-14 08:30:00,33.3,31.8,30.14,WNW,283,0.0,0.0,94,0.00,,,0.00,Wunderground v.1.13,2013-02-14 13:30:00,
2013-02-14 08:36:00,33.9,32.4,30.14,WNW,283,0.0,0.0,94,0.00,,,0.00,Wunderground v.1.13,2013-02-14 13:36:00,
2013-02-14 08:42:00,34.6,33.3,30.14,WNW,283,0.0,0.0,95,0.00,,,0.00,Wunderground v.1.13,2013-02-14 13:42:00,
2013-02-14 08:47:00,35.0,33.4,30.14,WNW,283,0.0,0.0,94,0.00,,,0.00,Wunderground v.1.13,2013-02-14 13:47:00,
2013-02-14 08:53:00,35.4,33.8,30.14,WNW,283,0.0,1.0,94,0.00,,,0.00,Wunderground v.1.13,2013-02-14 13:53:00,
2013-02-14 08:59:00,36.5,34.9,30.14,WNW,283,0.0,0.0,94,0.00,,,0.00,Wunderground v.1.13,2013-02-14 13:59:00,
2013-02-14 09:04:00,37.2,35.4,30.15,WNW,283,0.0,2.0,93,0.00,,,0.00,Wunderground v.1.13,2013-02-14 14:04:00,
2013-02-14 09:09:00,37.5,35.1,30.15,WSW,237,3.0,9.0,91,0.00,,,0.00,Wunderground v.1.13,2013-02-14 14:09:00,
2013-02-14 09:15:00,37.9,34.7,30.15,WSW,246,5.0,5.0,88,0.00,,,0.00,Wunderground v.1.13,2013-02-14 14:15:00,
2013-02-14 09:20:00,38.6,34.8,30.15,WSW,249,4.0,4.0,86,0.00,,,0.00,Wunderground v.1.13,2013-02-14 14:20:00,
2013-02-14 09:26:00,39.1,34.1,30.16,WSW,255,4.0,10.0,82,0.00,,,0.00,Wunderground v.1.13,2013-02-14 14:26:00,
2013-02-14 09:31:00,39.5,33.8,30.16,SW,228,6.0,9.0,80,0.00,,,0.00,Wunderground v.1.13,2013-02-14 14:31:00,
2013-02-14 09:36:00,39.6,33.6,30.15,WSW,250,5.0,6.0,79,0.00,,,0.00,Wunderground v.1.13,2013-02-14 14:36:00,
2013-02-14 09:42:00,40.0,33.4,30.15,West,261,5.0,7.0,77,0.00,,,0.00,Wunderground v.1.13,2013-02-14 14:42:00,
2013-02-14 09:48:00,40.1,33.1,30.15,West,263,6.0,7.0,76,0.00,,,0.00,Wunderground v.1.13,2013-02-14 14:48:00,
2013-02-14 09:53:00,40.4,33.1,30.15,WSW,254,5.0,7.0,75,0.00,,,0.00,Wunderground v.1.13,2013-02-14 14:53:00,
2013-02-14 09:59:00,40.3,32.7,30.16,SW,231,6.0,7.0,74,0.00,,,0.00,Wunderground v.1.13,2013-02-14 14:59:00,
2013-02-14 10:05:00,40.1,32.8,30.16,West,259,5.0,10.0,75,0.00,,,0.00,Wunderground v.1.13,2013-02-14 15:05:00,
2013-02-14 10:10:00,40.1,32.8,30.16,West,267,6.0,6.0,75,0.00,,,0.00,Wunderground v.1.13,2013-02-14 15:10:00,
2013-02-14 10:16:00,40.2,33.2,30.16,West,273,5.0,7.0,76,0.00,,,0.00,Wunderground v.1.13,2013-02-14 15:16:00,
2013-02-14 10:22:00,40.0,32.7,30.16,WSW,255,6.0,11.0,75,0.00,,,0.00,Wunderground v.1.13,2013-02-14 15:22:00,
2013-02-14 10:27:00,40.0,32.7,30.16,West,268,7.0,7.0,75,0.00,,,0.00,Wunderground v.1.13,2013-02-14 15:27:00,
2013-02-14 10:32:00,40.1,32.8,30.16,West,265,6.0,11.0,75,0.00,,,0.00,Wunderground v.1.13,2013-02-14 15:32:00,
2013-02-14 10:38:00,40.2,32.9,30.16,West,278,5.0,9.0,75,0.00,,,0.00,Wunderground v.1.13,2013-02-14 15:38:00,
2013-02-14 10:43:00,41.8,34.5,30.16,West,269,5.0,11.0,75,0.00,,,0.00,Wunderground v.1.13,2013-02-14 15:43:00,
2013-02-14 10:49:00,42.6,34.2,30.16,West,273,6.0,12.0,72,0.00,,,0.00,Wunderground v.1.13,2013-02-14 15:49:00,
2013-02-14 10:54:00,42.4,33.7,30.15,West,269,7.0,7.0,71,0.00,,,0.00,Wunderground v.1.13,2013-02-14 15:54:00,
2013-02-14 11:00:00,42.7,34.3,30.15,West,269,5.0,5.0,72,0.00,,,0.00,Wunderground v.1.13,2013-02-14 16:00:00,
2013-02-14 11:06:00,43.7,34.9,30.14,West,267,4.0,4.0,71,0.00,,,0.00,Wunderground v.1.13,2013-02-14 16:06:00,
2013-02-14 11:12:00,43.5,34.4,30.15,West,273,6.0,9.0,70,0.00,,,0.00,Wunderground v.1.13,2013-02-14 16:12:00,
2013-02-14 11:17:00,43.1,34.3,30.15,West,277,6.0,7.0,71,0.00,,,0.00,Wunderground v.1.13,2013-02-14 16:17:00,
2013-02-14 11:23:00,42.8,34.0,30.14,West,263,5.0,10.0,71,0.00,,,0.00,Wunderground v.1.13,2013-02-14 16:23:00,
2013-02-14 11:29:00,43.5,34.7,30.14,West,271,4.0,5.0,71,0.00,,,0.00,Wunderground v.1.13,2013-02-14 16:29:00,
2013-02-14 11:34:00,44.0,33.7,30.14,WNW,293,3.0,5.0,67,0.00,,,0.00,Wunderground v.1.13,2013-02-14 16:34:00,
2013-02-14 11:39:00,44.0,33.7,30.14,WSW,251,4.0,6.0,67,0.00,,,0.00,Wunderground v.1.13,2013-02-14 16:39:00,
2013-02-14 11:45:00,43.8,33.6,30.13,West,267,4.0,4.0,67,0.00,,,0.00,Wunderground v.1.13,2013-02-14 16:45:00,
2013-02-14 11:50:00,44.3,34.0,30.13,WSW,256,4.0,8.0,67,0.00,,,0.00,Wunderground v.1.13,2013-02-14 16:50:00,
2013-02-14 11:56:00,44.2,33.2,30.14,WSW,248,6.0,6.0,65,0.00,,,0.00,Wunderground v.1.13,2013-02-14 16:56:00,
2013-02-14 12:01:00,45.0,34.3,30.14,West,278,4.0,8.0,66,0.00,,,0.00,Wunderground v.1.13,2013-02-14 17:01:00,
2013-02-14 12:07:00,45.9,35.2,30.13,West,275,5.0,7.0,66,0.00,,,0.00,Wunderground v.1.13,2013-02-14 17:07:00,
2013-02-14 12:12:00,46.1,34.2,30.13,WSW,248,5.0,6.0,63,0.00,,,0.00,Wunderground v.1.13,2013-02-14 17:12:00,
2013-02-14 12:18:00,46.0,34.5,30.13,WSW,252,3.0,5.0,64,0.00,,,0.00,Wunderground v.1.13,2013-02-14 17:18:00,
2013-02-14 12:23:00,45.6,33.7,30.13,West,275,3.0,5.0,63,0.00,,,0.00,Wunderground v.1.13,2013-02-14 17:23:00,
2013-02-14 12:29:00,45.9,34.4,30.13,West,273,4.0,8.0,64,0.00,,,0.00,Wunderground v.1.13,2013-02-14 17:29:00,
2013-02-14 12:35:00,46.2,34.3,30.13,West,277,4.0,4.0,63,0.00,,,0.00,Wunderground v.1.13,2013-02-14 17:35:00,
2013-02-14 12:40:00,46.7,34.4,30.14,West,273,4.0,7.0,62,0.00,,,0.00,Wunderground v.1.13,2013-02-14 17:40:00,
2013-02-14 12:46:00,47.3,34.5,30.13,SSW,199,3.0,3.0,61,0.00,,,0.00,Wunderground v.1.13,2013-02-14 17:46:00,
2013-02-14 12:51:00,47.3,35.3,30.13,SW,217,5.0,11.0,63,0.00,,,0.00,Wunderground v.1.13,2013-02-14 17:51:00,
2013-02-14 12:57:00,47.4,34.6,30.13,West,259,6.0,10.0,61,0.00,,,0.00,Wunderground v.1.13,2013-02-14 17:57:00,
2013-02-14 13:02:00,47.4,34.6,30.13,WSW,249,5.0,7.0,61,0.00,,,0.00,Wunderground v.1.13,2013-02-14 18:02:00,
2013-02-14 13:08:00,47.6,34.8,30.13,WSW,244,5.0,7.0,61,0.00,,,0.00,Wunderground v.1.13,2013-02-14 18:08:00,
2013-02-14 13:13:00,47.5,34.7,30.12,West,271,3.0,4.0,61,0.00,,,0.00,Wunderground v.1.13,2013-02-14 18:13:00,
2013-02-14 13:19:00,48.4,36.0,30.12,West,274,3.0,9.0,62,0.00,,,0.00,Wunderground v.1.13,2013-02-14 18:19:00,
2013-02-14 13:25:00,48.3,34.2,30.12,WSW,257,5.0,7.0,58,0.00,,,0.00,Wunderground v.1.13,2013-02-14 18:25:00,
2013-02-14 13:30:00,48.8,35.5,30.11,West,276,6.0,6.0,60,0.00,,,0.00,Wunderground v.1.13,2013-02-14 18:30:00,
2013-02-14 13:36:00,49.2,35.9,30.11,West,264,5.0,5.0,60,0.00,,,0.00,Wunderground v.1.13,2013-02-14 18:36:00,
2013-02-14 13:42:00,49.2,35.0,30.11,West,267,5.0,5.0,58,0.00,,,0.00,Wunderground v.1.13,2013-02-14 18:42:00,
2013-02-14 13:48:00,49.1,35.4,30.10,West,276,5.0,7.0,59,0.00,,,0.00,Wunderground v.1.13,2013-02-14 18:48:00,
2013-02-14 13:54:00,49.4,35.2,30.10,SSW,204,5.0,7.0,58,0.00,,,0.00,Wunderground v.1.13,2013-02-14 18:54:00,
2013-02-14 13:59:00,49.2,35.0,30.09,SW,223,3.0,5.0,58,0.00,,,0.00,Wunderground v.1.13,2013-02-14 18:59:00,
2013-02-14 14:05:00,49.5,34.4,30.09,WSW,238,4.0,4.0,56,0.00,,,0.00,Wunderground v.1.13,2013-02-14 19:05:00,
2013-02-14 14:11:00,49.5,34.9,30.08,West,267,6.0,7.0,57,0.00,,,0.00,Wunderground v.1.13,2013-02-14 19:11:00,
2013-02-14 14:17:00,50.0,35.4,30.08,WSW,238,5.0,12.0,57,0.00,,,0.00,Wunderground v.1.13,2013-02-14 19:17:00,
2013-02-14 14:22:00,50.1,35.4,30.08,SW,221,5.0,10.0,57,0.00,,,0.00,Wunderground v.1.13,2013-02-14 19:22:00,
2013-02-14 14:28:00,50.4,35.7,30.07,WSW,254,4.0,6.0,57,0.00,,,0.00,Wunderground v.1.13,2013-02-14 19:28:00,
2013-02-14 14:34:00,51.2,36.0,30.07,West,264,4.0,8.0,56,0.00,,,0.00,Wunderground v.1.13,2013-02-14 19:34:00,
2013-02-14 14:39:00,51.4,35.3,30.07,SSW,196,5.0,10.0,54,0.00,,,0.00,Wunderground v.1.13,2013-02-14 19:39:00,
2013-02-14 14:45:00,50.2,34.6,30.07,SSW,209,6.0,6.0,55,0.00,,,0.00,Wunderground v.1.13,2013-02-14 19:45:00,
2013-02-14 14:51:00,50.6,35.9,30.07,West,279,5.0,10.0,57,0.00,,,0.00,Wunderground v.1.13,2013-02-14 19:51:00,
2013-02-14 14:56:00,51.0,35.4,30.07,West,263,7.0,7.0,55,0.00,,,0.00,Wunderground v.1.13,2013-02-14 19:56:00,
2013-02-14 15:02:00,50.8,35.7,30.08,West,271,7.0,9.0,56,0.00,,,0.00,Wunderground v.1.13,2013-02-14 20:02:00,
2013-02-14 15:07:00,50.8,35.7,30.08,West,263,8.0,9.0,56,0.00,,,0.00,Wunderground v.1.13,2013-02-14 20:07:00,
2013-02-14 15:13:00,50.9,35.7,30.08,West,279,8.0,11.0,56,0.00,,,0.00,Wunderground v.1.13,2013-02-14 20:13:00,
2013-02-14 15:18:00,50.9,35.7,30.08,SW,223,8.0,11.0,56,0.00,,,0.00,Wunderground v.1.13,2013-02-14 20:18:00,
2013-02-14 15:24:00,50.8,35.2,30.08,WSW,251,8.0,12.0,55,0.00,,,0.00,Wunderground v.1.13,2013-02-14 20:24:00,
2013-02-14 15:29:00,50.7,34.6,30.08,SW,222,8.0,8.0,54,0.00,,,0.00,Wunderground v.1.13,2013-02-14 20:29:00,
2013-02-14 15:35:00,50.9,35.3,30.08,West,277,7.0,7.0,55,0.00,,,0.00,Wunderground v.1.13,2013-02-14 20:35:00,
2013-02-14 15:40:00,51.1,34.5,30.08,WSW,254,7.0,12.0,53,0.00,,,0.00,Wunderground v.1.13,2013-02-14 20:40:00,
2013-02-14 15:46:00,51.1,35.5,30.08,West,265,8.0,8.0,55,0.00,,,0.00,Wunderground v.1.13,2013-02-14 20:46:00,
2013-02-14 15:51:00,51.2,35.6,30.08,WSW,252,7.0,8.0,55,0.00,,,0.00,Wunderground v.1.13,2013-02-14 20:51:00,
2013-02-14 15:57:00,51.3,35.2,30.09,WSW,239,6.0,10.0,54,0.00,,,0.00,Wunderground v.1.13,2013-02-14 20:57:00,
2013-02-14 16:03:00,51.2,35.1,30.08,WSW,246,7.0,10.0,54,0.00,,,0.00,Wunderground v.1.13,2013-02-14 21:03:00,
2013-02-14 16:08:00,51.0,34.9,30.09,West,265,7.0,10.0,54,0.00,,,0.00,Wunderground v.1.13,2013-02-14 21:08:00,
2013-02-14 16:14:00,50.9,34.8,30.09,WSW,252,7.0,10.0,54,0.00,,,0.00,Wunderground v.1.13,2013-02-14 21:14:00,
2013-02-14 16:20:00,50.9,35.3,30.09,WSW,246,8.0,10.0,55,0.00,,,0.00,Wunderground v.1.13,2013-02-14 21:20:00,
2013-02-14 16:25:00,50.9,35.3,30.09,West,276,7.0,7.0,55,0.00,,,0.00,Wunderground v.1.13,2013-02-14 21:25:00,
2013-02-14 16:31:00,51.1,35.5,30.09,SSW,209,6.0,9.0,55,0.00,,,0.00,Wunderground v.1.13,2013-02-14 21:31:00,
2013-02-14 16:37:00,51.1,35.5,30.09,WSW,241,7.0,8.0,55,0.00,,,0.00,Wunderground v.1.13,2013-02-14 21:37:00,
2013-02-14 16:42:00,50.9,35.3,30.09,SW,232,6.0,7.0,55,0.00,,,0.00,Wunderground v.1.13,2013-02-14 21:42:00,
2013-02-14 16:48:00,50.9,35.7,30.09,SSW,194,5.0,9.0,56,0.00,,,0.00,Wunderground v.1.13,2013-02-14 21:48:00,
2013-02-14 16:54:00,50.8,35.7,30.10,WSW,239,5.0,7.0,56,0.00,,,0.00,Wunderground v.1.13,2013-02-14 21:54:00,
2013-02-14 16:59:00,50.7,35.1,30.09,WSW,252,5.0,11.0,55,0.00,,,0.00,Wunderground v.1.13,2013-02-14 21:59:00,
2013-02-14 17:05:00,50.7,35.1,30.09,WSW,249,7.0,7.0,55,0.00,,,0.00,Wunderground v.1.13,2013-02-14 22:05:00,
2013-02-14 17:11:00,50.6,35.5,30.10,West,271,7.0,10.0,56,0.00,,,0.00,Wunderground v.1.13,2013-02-14 22:11:00,
2013-02-14 17:17:00,50.5,35.4,30.10,WSW,245,5.0,6.0,56,0.00,,,0.00,Wunderground v.1.13,2013-02-14 22:17:00,
2013-02-14 17:23:00,50.4,35.3,30.10,West,267,5.0,12.0,56,0.00,,,0.00,Wunderground v.1.13,2013-02-14 22:23:00,
2013-02-14 17:29:00,50.3,35.2,30.09,SW,236,6.0,9.0,56,0.00,,,0.00,Wunderground v.1.13,2013-02-14 22:29:00,
2013-02-14 17:34:00,50.1,35.4,30.09,WSW,237,4.0,6.0,57,0.00,,,0.00,Wunderground v.1.13,2013-02-14 22:34:00,
2013-02-14 17:39:00,50.1,35.4,30.09,WSW,252,3.0,4.0,57,0.00,,,0.00,Wunderground v.1.13,2013-02-14 22:39:00,
2013-02-14 17:45:00,50.0,35.8,30.09,WSW,252,2.0,2.0,58,0.00,,,0.00,Wunderground v.1.13,2013-02-14 22:45:00,
2013-02-14 17:50:00,49.9,36.1,30.09,WSW,252,0.0,0.0,59,0.00,,,0.00,Wunderground v.1.13,2013-02-14 22:50:00,
2013-02-14 17:56:00,49.7,35.9,30.09,WSW,252,1.0,2.0,59,0.00,,,0.00,Wunderground v.1.13,2013-02-14 22:56:00,
2013-02-14 18:02:00,49.4,35.7,30.09,WSW,252,1.0,2.0,59,0.00,,,0.00,Wunderground v.1.13,2013-02-14 23:02:00,
2013-02-14 18:08:00,49.0,35.3,30.09,WSW,252,1.0,2.0,59,0.00,,,0.00,Wunderground v.1.13,2013-02-14 23:08:00,
2013-02-14 18:13:00,48.7,35.4,30.09,WSW,252,1.0,1.0,60,0.00,,,0.00,Wunderground v.1.13,2013-02-14 23:13:00,
2013-02-14 18:19:00,48.2,35.4,30.09,WSW,252,0.0,0.0,61,0.00,,,0.00,Wunderground v.1.13,2013-02-14 23:19:00,
2013-02-14 18:25:00,47.6,35.6,30.09,WSW,252,0.0,0.0,63,0.00,,,0.00,Wunderground v.1.13,2013-02-14 23:25:00,
2013-02-14 18:30:00,46.9,35.4,30.09,WSW,252,0.0,0.0,64,0.00,,,0.00,Wunderground v.1.13,2013-02-14 23:30:00,
2013-02-14 18:36:00,46.4,35.7,30.09,WSW,252,0.0,0.0,66,0.00,,,0.00,Wunderground v.1.13,2013-02-14 23:36:00,
2013-02-14 18:42:00,45.7,35.4,30.10,WSW,252,0.0,0.0,67,0.00,,,0.00,Wunderground v.1.13,2013-02-14 23:42:00,
2013-02-14 18:47:00,45.0,35.1,30.10,WSW,252,0.0,0.0,68,0.00,,,0.00,Wunderground v.1.13,2013-02-14 23:47:00,
2013-02-14 18:53:00,44.0,34.8,30.10,WSW,252,0.0,0.0,70,0.00,,,0.00,Wunderground v.1.13,2013-02-14 23:53:00,
2013-02-14 18:58:00,43.2,34.4,30.10,WSW,252,0.0,0.0,71,0.00,,,0.00,Wunderground v.1.13,2013-02-14 23:58:00,
2013-02-14 19:03:00,42.4,34.4,30.10,WSW,252,0.0,0.0,73,0.00,,,0.00,Wunderground v.1.13,2013-02-15 00:03:00,
2013-02-14 19:09:00,41.6,33.9,30.10,WSW,252,0.0,0.0,74,0.00,,,0.00,Wunderground v.1.13,2013-02-15 00:09:00,
2013-02-14 19:14:00,41.1,33.8,30.10,WSW,252,0.0,0.0,75,0.00,,,0.00,Wunderground v.1.13,2013-02-15 00:14:00,
2013-02-14 19:20:00,40.6,33.6,30.10,WSW,252,0.0,0.0,76,0.00,,,0.00,Wunderground v.1.13,2013-02-15 00:20:00,
2013-02-14 19:26:00,39.9,33.3,30.10,WSW,252,0.0,0.0,77,0.00,,,0.00,Wunderground v.1.13,2013-02-15 00:26:00,
2013-02-14 19:31:00,39.4,32.8,30.10,WSW,252,0.0,0.0,77,0.00,,,0.00,Wunderground v.1.13,2013-02-15 00:31:00,
2013-02-14 19:37:00,39.0,32.7,30.10,WSW,252,0.0,0.0,78,0.00,,,0.00,Wunderground v.1.13,2013-02-15 00:37:00,
2013-02-14 19:43:00,38.6,32.3,30.11,WSW,252,0.0,0.0,78,0.00,,,0.00,Wunderground v.1.13,2013-02-15 00:43:00,
2013-02-14 19:48:00,38.2,32.3,30.11,WSW,252,0.0,0.0,79,0.00,,,0.00,Wunderground v.1.13,2013-02-15 00:48:00,
2013-02-14 19:54:00,37.8,32.2,30.11,WSW,252,0.0,0.0,80,0.00,,,0.00,Wunderground v.1.13,2013-02-15 00:54:00,
2013-02-14 20:00:00,37.4,32.1,30.11,WSW,252,0.0,0.0,81,0.00,,,0.00,Wunderground v.1.13,2013-02-15 01:00:00,
2013-02-14 20:05:00,37.0,31.7,30.11,WSW,252,0.0,0.0,81,0.00,,,0.00,Wunderground v.1.13,2013-02-15 01:05:00,
2013-02-14 20:10:00,36.6,31.6,30.11,WSW,252,0.0,0.0,82,0.00,,,0.00,Wunderground v.1.13,2013-02-15 01:10:00,
2013-02-14 20:16:00,36.2,31.5,30.11,WSW,252,0.0,0.0,83,0.00,,,0.00,Wunderground v.1.13,2013-02-15 01:16:00,
2013-02-14 20:21:00,35.9,31.2,30.11,WSW,252,0.0,0.0,83,0.00,,,0.00,Wunderground v.1.13,2013-02-15 01:21:00,
2013-02-14 20:27:00,35.6,30.9,30.11,WSW,252,0.0,0.0,83,0.00,,,0.00,Wunderground v.1.13,2013-02-15 01:27:00,
2013-02-14 20:33:00,35.3,30.9,30.11,WSW,252,0.0,0.0,84,0.00,,,0.00,Wunderground v.1.13,2013-02-15 01:33:00,
2013-02-14 20:39:00,35.0,30.7,30.11,WSW,252,0.0,0.0,84,0.00,,,0.00,Wunderground v.1.13,2013-02-15 01:39:00,
2013-02-14 20:44:00,34.8,30.5,30.11,WSW,252,0.0,0.0,84,0.00,,,0.00,Wunderground v.1.13,2013-02-15 01:44:00,
2013-02-14 20:50:00,34.5,30.2,30.11,WSW,252,0.0,0.0,84,0.00,,,0.00,Wunderground v.1.13,2013-02-15 01:50:00,
2013-02-14 20:55:00,34.4,30.4,30.11,WSW,252,0.0,0.0,85,0.00,,,0.00,Wunderground v.1.13,2013-02-15 01:55:00,
2013-02-14 21:01:00,34.1,30.1,30.11,WSW,252,0.0,0.0,85,0.00,,,0.00,Wunderground v.1.13,2013-02-15 02:01:00,
2013-02-14 21:07:00,33.8,29.8,30.11,WSW,252,0.0,0.0,85,0.00,,,0.00,Wunderground v.1.13,2013-02-15 02:07:00,
2013-02-14 21:12:00,33.6,29.9,30.11,WSW,252,0.0,0.0,86,0.00,,,0.00,Wunderground v.1.13,2013-02-15 02:12:00,
2013-02-14 21:18:00,33.4,29.7,30.11,WSW,252,0.0,0.0,86,0.00,,,0.00,Wunderground v.1.13,2013-02-15 02:18:00,
2013-02-14 21:24:00,33.2,29.5,30.11,WSW,252,0.0,0.0,86,0.00,,,0.00,Wunderground v.1.13,2013-02-15 02:24:00,
2013-02-14 21:29:00,33.0,29.3,30.11,WSW,252,0.0,0.0,86,0.00,,,0.00,Wunderground v.1.13,2013-02-15 02:29:00,
2013-02-14 21:35:00,32.9,29.5,30.11,WSW,252,0.0,0.0,87,0.00,,,0.00,Wunderground v.1.13,2013-02-15 02:35:00,
2013-02-14 21:41:00,32.8,29.4,30.11,WSW,252,0.0,0.0,87,0.00,,,0.00,Wunderground v.1.13,2013-02-15 02:41:00,
2013-02-14 21:46:00,32.6,29.2,30.11,WSW,252,0.0,0.0,87,0.00,,,0.00,Wunderground v.1.13,2013-02-15 02:46:00,
2013-02-14 21:52:00,32.5,29.1,30.11,WSW,252,0.0,0.0,87,0.00,,,0.00,Wunderground v.1.13,2013-02-15 02:52:00,
2013-02-14 21:58:00,32.3,28.9,30.11,WSW,252,0.0,0.0,87,0.00,,,0.00,Wunderground v.1.13,2013-02-15 02:58:00,
2013-02-14 22:03:00,32.2,28.8,30.11,WSW,252,0.0,0.0,87,0.00,,,0.00,Wunderground v.1.13,2013-02-15 03:03:00,
2013-02-14 22:08:00,32.1,28.9,30.11,WSW,252,0.0,0.0,88,0.00,,,0.00,Wunderground v.1.13,2013-02-15 03:08:00,
2013-02-14 22:14:00,31.9,28.8,30.11,WSW,252,0.0,0.0,88,0.00,,,0.00,Wunderground v.1.13,2013-02-15 03:14:00,
2013-02-14 22:19:00,31.8,28.7,30.12,WSW,252,0.0,0.0,88,0.00,,,0.00,Wunderground v.1.13,2013-02-15 03:19:00,
2013-02-14 22:25:00,31.7,28.6,30.12,WSW,252,0.0,0.0,88,0.00,,,0.00,Wunderground v.1.13,2013-02-15 03:25:00,
2013-02-14 22:30:00,31.6,28.5,30.11,WSW,252,0.0,0.0,88,0.00,,,0.00,Wunderground v.1.13,2013-02-15 03:30:00,
2013-02-14 22:36:00,31.4,28.3,30.12,WSW,252,0.0,0.0,88,0.00,,,0.00,Wunderground v.1.13,2013-02-15 03:36:00,
2013-02-14 22:41:00,31.3,28.2,30.12,WSW,252,0.0,0.0,88,0.00,,,0.00,Wunderground v.1.13,2013-02-15 03:41:00,
2013-02-14 22:47:00,31.2,28.1,30.12,WSW,252,0.0,0.0,88,0.00,,,0.00,Wunderground v.1.13,2013-02-15 03:47:00,
2013-02-14 22:52:00,31.1,28.2,30.12,WSW,252,0.0,0.0,89,0.00,,,0.00,Wunderground v.1.13,2013-02-15 03:52:00,
2013-02-14 22:58:00,30.9,28.0,30.12,WSW,252,0.0,0.0,89,0.00,,,0.00,Wunderground v.1.13,2013-02-15 03:58:00,
2013-02-14 23:04:00,30.8,27.9,30.12,WSW,252,0.0,0.0,89,0.00,,,0.00,Wunderground v.1.13,2013-02-15 04:04:00,
2013-02-14 23:09:00,30.7,27.8,30.12,WSW,252,0.0,0.0,89,0.00,,,0.00,Wunderground v.1.13,2013-02-15 04:09:00,
2013-02-14 23:15:00,30.5,27.6,30.12,WSW,252,0.0,0.0,89,0.00,,,0.00,Wunderground v.1.13,2013-02-15 04:15:00,
2013-02-14 23:21:00,30.3,27.4,30.12,WSW,252,0.0,0.0,89,0.00,,,0.00,Wunderground v.1.13,2013-02-15 04:21:00,
2013-02-14 23:26:00,30.2,27.3,30.12,WSW,252,0.0,0.0,89,0.00,,,0.00,Wunderground v.1.13,2013-02-15 04:26:00,
2013-02-14 23:32:00,30.0,27.2,30.12,WSW,252,0.0,0.0,89,0.00,,,0.00,Wunderground v.1.13,2013-02-15 04:32:00,
2013-02-14 23:38:00,29.9,27.1,30.12,WSW,252,0.0,0.0,89,0.00,,,0.00,Wunderground v.1.13,2013-02-15 04:38:00,
2013-02-14 23:44:00,29.8,27.0,30.12,WSW,252,0.0,0.0,89,0.00,,,0.00,Wunderground v.1.13,2013-02-15 04:44:00,
2013-02-14 23:49:00,29.7,27.1,30.12,WSW,252,0.0,0.0,90,0.00,,,0.00,Wunderground v.1.13,2013-02-15 04:49:00,
2013-02-14 23:55:00,29.6,27.0,30.12,WSW,252,0.0,0.0,90,0.00,,,0.00,Wunderground v.1.13,2013-02-15 04:55:00,